Time;durP1;ratioP1;P1;durP2;ratioP2;P2;SDS_P1;SDS_P2;PMS_P1;PMS_P2;Temp;Humidity;BMP_temperature;BMP_pressure;BME280_temperature;BME280_humidity;BME280_pressure;Samples;Min_cycle;Max_cycle;Signal;HPM_P1;HPM_P2
2022/01/29 00:00:31;;;;;;;0.60;0.50;;;;;;;;;;5052030;28;20436;-75
2022/01/29 00:02:57;;;;;;;0.60;0.50;;;;;;;;;;5060302;28;20473;-75
2022/01/29 00:05:24;;;;;;;0.60;0.57;;;;;;;;;;5071271;28;20451;-75
2022/01/29 00:07:51;;;;;;;0.70;0.70;;;;;;;;;;5061385;28;20466;-75
2022/01/29 00:10:18;;;;;;;0.60;0.50;;;;;;;;;;5062061;28;20443;-75
2022/01/29 00:12:47;;;;;;;0.60;0.60;;;;;;;;;;5072366;28;20444;-74
2022/01/29 00:15:14;;;;;;;0.60;0.50;;;;;;;;;;5073218;28;20443;-74
2022/01/29 00:17:40;;;;;;;0.60;0.60;;;;;;;;;;5071740;28;20443;-74
2022/01/29 00:20:08;;;;;;;0.60;0.50;;;;;;;;;;5059782;28;20806;-75
2022/01/29 00:22:35;;;;;;;0.60;0.50;;;;;;;;;;5034087;28;20482;-74
2022/01/29 00:25:04;;;;;;;0.60;0.60;;;;;;;;;;5072539;28;20501;-75
2022/01/29 00:27:34;;;;;;;0.60;0.60;;;;;;;;;;5071498;28;20570;-75
2022/01/29 00:30:09;;;;;;;0.60;0.50;;;;;;;;;;5054070;28;20972;-75
2022/01/29 00:32:37;;;;;;;0.60;0.60;;;;;;;;;;5035335;28;20440;-76
2022/01/29 00:35:04;;;;;;;0.60;0.60;;;;;;;;;;5052529;28;20970;-76
2022/01/29 00:37:31;;;;;;;0.60;0.60;;;;;;;;;;5074169;28;20488;-74
2022/01/29 00:39:58;;;;;;;0.60;0.50;;;;;;;;;;5056799;28;20452;-75
2022/01/29 00:42:25;;;;;;;0.60;0.50;;;;;;;;;;5061174;28;20497;-76
2022/01/29 00:44:52;;;;;;;0.60;0.60;;;;;;;;;;5056431;28;20541;-76
2022/01/29 00:47:20;;;;;;;0.60;0.60;;;;;;;;;;5062592;28;20489;-75
2022/01/29 00:49:47;;;;;;;0.60;0.60;;;;;;;;;;5070765;28;20455;-75
2022/01/29 00:52:13;;;;;;;0.60;0.60;;;;;;;;;;5071945;28;20463;-76
2022/01/29 00:54:40;;;;;;;0.60;0.60;;;;;;;;;;5051677;28;20950;-76
2022/01/29 00:57:07;;;;;;;0.60;0.60;;;;;;;;;;5062970;28;20482;-76
2022/01/29 00:59:34;;;;;;;0.60;0.60;;;;;;;;;;5053440;28;20459;-76
2022/01/29 01:02:02;;;;;;;0.60;0.50;;;;;;;;;;5063266;28;20513;-73
2022/01/29 01:04:32;;;;;;;0.60;0.50;;;;;;;;;;5065428;28;20855;-76
2022/01/29 01:06:58;;;;;;;0.60;0.50;;;;;;;;;;5077059;28;20443;-76
2022/01/29 01:09:25;;;;;;;0.60;0.50;;;;;;;;;;5072476;28;20436;-73
2022/01/29 01:11:52;;;;;;;0.60;0.60;;;;;;;;;;5074347;28;20425;-74
2022/01/29 01:14:19;;;;;;;0.60;0.60;;;;;;;;;;5075643;28;20448;-74
2022/01/29 01:16:45;;;;;;;0.60;0.60;;;;;;;;;;5076797;28;20423;-75
2022/01/29 01:19:12;;;;;;;0.60;0.60;;;;;;;;;;5065534;28;20503;-75
2022/01/29 01:21:40;;;;;;;0.60;0.60;;;;;;;;;;5057798;28;20494;-74
2022/01/29 01:24:07;;;;;;;0.60;0.60;;;;;;;;;;5055837;28;20440;-75
2022/01/29 01:26:35;;;;;;;0.60;0.60;;;;;;;;;;5055610;28;20827;-75
2022/01/29 01:29:02;;;;;;;0.60;0.60;;;;;;;;;;5063528;28;20445;-75
2022/01/29 01:31:29;;;;;;;0.60;0.60;;;;;;;;;;5075177;28;20419;-75
2022/01/29 01:33:55;;;;;;;0.60;0.50;;;;;;;;;;5074072;28;20449;-74
2022/01/29 01:36:25;;;;;;;0.60;0.50;;;;;;;;;;5057809;28;20812;-74
2022/01/29 01:39:04;;;;;;;0.60;0.60;;;;;;;;;;5069312;28;20960;-73
2022/01/29 01:41:37;;;;;;;2.73;1.23;;;;;;;;;;5075196;28;20453;-75
2022/01/29 01:44:04;;;;;;;0.60;0.50;;;;;;;;;;5077045;28;20412;-73
2022/01/29 01:46:31;;;;;;;0.60;0.60;;;;;;;;;;5076352;28;20466;-74
2022/01/29 01:48:58;;;;;;;0.60;0.60;;;;;;;;;;5054667;28;20444;-76
2022/01/29 01:51:25;;;;;;;0.60;0.60;;;;;;;;;;5056572;28;20452;-76
2022/01/29 01:53:53;;;;;;;0.60;0.60;;;;;;;;;;5056251;28;21007;-77
2022/01/29 01:56:20;;;;;;;0.60;0.60;;;;;;;;;;5055797;28;20529;-76
2022/01/29 01:58:47;;;;;;;0.60;0.60;;;;;;;;;;5060803;28;20835;-76
2022/01/29 02:01:14;;;;;;;0.60;0.60;;;;;;;;;;5057743;28;20425;-76
2022/01/29 02:03:42;;;;;;;0.70;0.60;;;;;;;;;;5074390;28;20439;-76
2022/01/29 02:06:09;;;;;;;0.60;0.60;;;;;;;;;;5074966;28;20428;-74
2022/01/29 02:08:35;;;;;;;0.60;0.50;;;;;;;;;;5073706;28;20514;-76
2022/01/29 02:11:04;;;;;;;0.60;0.60;;;;;;;;;;5072952;28;20927;-75
2022/01/29 02:13:31;;;;;;;0.60;0.60;;;;;;;;;;5073122;28;20936;-76
2022/01/29 02:15:58;;;;;;;0.60;0.50;;;;;;;;;;5064695;28;20434;-75
2022/01/29 02:18:25;;;;;;;1.33;1.23;;;;;;;;;;5055048;28;20430;-76
2022/01/29 02:20:52;;;;;;;0.60;0.60;;;;;;;;;;5054101;28;20548;-75
2022/01/29 02:23:21;;;;;;;0.70;0.60;;;;;;;;;;5060491;28;20474;-75
2022/01/29 02:25:48;;;;;;;0.60;0.60;;;;;;;;;;5074339;28;20917;-76
2022/01/29 02:28:17;;;;;;;0.70;0.70;;;;;;;;;;5074736;28;20514;-76
2022/01/29 02:30:44;;;;;;;0.60;0.60;;;;;;;;;;5055329;28;20432;-75
2022/01/29 02:33:13;;;;;;;0.60;0.50;;;;;;;;;;5061746;28;20469;-76
2022/01/29 02:35:41;;;;;;;0.60;0.50;;;;;;;;;;5074431;28;20476;-76
2022/01/29 02:38:08;;;;;;;0.60;0.50;;;;;;;;;;5073428;28;20455;-76
2022/01/29 02:40:44;;;;;;;0.60;0.53;;;;;;;;;;5072742;28;20467;-75
2022/01/29 02:43:13;;;;;;;0.70;0.70;;;;;;;;;;5073713;28;20779;-75
2022/01/29 02:45:41;;;;;;;0.60;0.50;;;;;;;;;;5074216;28;20432;-75
2022/01/29 02:48:09;;;;;;;0.60;0.60;;;;;;;;;;5073626;28;20792;-76
2022/01/29 02:50:36;;;;;;;0.60;0.50;;;;;;;;;;5057955;28;20509;-76
2022/01/29 02:53:02;;;;;;;0.60;0.50;;;;;;;;;;5072701;28;20463;-76
2022/01/29 02:55:30;;;;;;;0.73;0.70;;;;;;;;;;5074016;28;20443;-75
2022/01/29 02:57:58;;;;;;;1.37;1.27;;;;;;;;;;5090209;28;20432;-75
2022/01/29 03:00:25;;;;;;;0.60;0.50;;;;;;;;;;5083747;28;20464;-75
2022/01/29 03:02:52;;;;;;;0.60;0.60;;;;;;;;;;5073454;28;20491;-76
2022/01/29 03:05:18;;;;;;;0.60;0.60;;;;;;;;;;5059619;28;20439;-75
2022/01/29 03:07:45;;;;;;;0.60;0.60;;;;;;;;;;5059961;28;20450;-73
2022/01/29 03:10:14;;;;;;;0.60;0.60;;;;;;;;;;5066919;28;20507;-76
2022/01/29 03:12:45;;;;;;;0.60;0.60;;;;;;;;;;5053316;28;20448;-76
2022/01/29 03:15:19;;;;;;;0.70;0.70;;;;;;;;;;5054134;28;20419;-76
2022/01/29 03:17:56;;;;;;;0.60;0.50;;;;;;;;;;5054677;28;20438;-76
2022/01/29 03:20:25;;;;;;;0.60;0.50;;;;;;;;;;5061563;28;20470;-76
2022/01/29 03:22:55;;;;;;;0.60;0.60;;;;;;;;;;5072485;28;20482;-75
2022/01/29 03:25:28;;;;;;;0.60;0.60;;;;;;;;;;5073389;28;20431;-76
2022/01/29 03:28:00;;;;;;;0.60;0.60;;;;;;;;;;5065125;28;20967;-75
2022/01/29 03:30:31;;;;;;;0.60;0.50;;;;;;;;;;5059067;28;20921;-75
2022/01/29 03:33:03;;;;;;;0.60;0.60;;;;;;;;;;5053141;28;20830;-76
2022/01/29 03:35:33;;;;;;;0.70;0.70;;;;;;;;;;5036853;28;20517;-76
2022/01/29 03:38:03;;;;;;;0.60;0.60;;;;;;;;;;5061645;28;20481;-75
2022/01/29 03:40:33;;;;;;;0.60;0.50;;;;;;;;;;5072396;28;20848;-77
2022/01/29 03:43:12;;;;;;;0.60;0.60;;;;;;;;;;5072700;28;20448;-75
2022/01/29 03:45:49;;;;;;;0.60;0.60;;;;;;;;;;5061312;28;20428;-75
2022/01/29 03:48:22;;;;;;;0.60;0.60;;;;;;;;;;5052677;28;20444;-76
2022/01/29 03:50:51;;;;;;;0.60;0.60;;;;;;;;;;5059873;28;20475;-76
2022/01/29 03:53:23;;;;;;;0.60;0.50;;;;;;;;;;5058718;28;20468;-75
2022/01/29 03:55:55;;;;;;;0.60;0.60;;;;;;;;;;5072438;28;20958;-75
2022/01/29 03:58:29;;;;;;;0.60;0.50;;;;;;;;;;5073197;28;20407;-75
2022/01/29 04:01:08;;;;;;;0.60;0.60;;;;;;;;;;5056476;28;20500;-75
2022/01/29 04:03:40;;;;;;;0.60;0.50;;;;;;;;;;5069170;28;20454;-76
2022/01/29 04:06:11;;;;;;;0.60;0.50;;;;;;;;;;5067541;28;20459;-75
2022/01/29 04:08:43;;;;;;;0.60;0.60;;;;;;;;;;5065705;28;20427;-75
2022/01/29 04:11:15;;;;;;;0.60;0.50;;;;;;;;;;5055891;28;20428;-75
2022/01/29 04:13:47;;;;;;;0.60;0.60;;;;;;;;;;5053041;28;20409;-76
2022/01/29 04:16:19;;;;;;;0.60;0.50;;;;;;;;;;5052519;28;20488;-76
2022/01/29 04:18:53;;;;;;;0.60;0.60;;;;;;;;;;5063919;28;20439;-75
2022/01/29 04:21:26;;;;;;;0.60;0.50;;;;;;;;;;5055265;28;20455;-75
2022/01/29 04:23:58;;;;;;;0.60;0.50;;;;;;;;;;5050558;28;20448;-74
2022/01/29 04:26:34;;;;;;;0.60;0.50;;;;;;;;;;5073708;28;20463;-75
2022/01/29 04:29:08;;;;;;;0.70;0.70;;;;;;;;;;5072220;28;20438;-76
2022/01/29 04:34:23;;;;;;;0.60;0.60;;;;;;;;;;5052179;28;20493;-75
2022/01/29 04:36:54;;;;;;;0.60;0.50;;;;;;;;;;5053426;28;20468;-76
2022/01/29 04:39:25;;;;;;;0.60;0.50;;;;;;;;;;5073122;28;20778;-76
2022/01/29 04:41:55;;;;;;;0.60;0.60;;;;;;;;;;5075915;28;20538;-76
2022/01/29 04:44:24;;;;;;;0.60;0.50;;;;;;;;;;5073160;28;20435;-76
2022/01/29 04:46:55;;;;;;;0.70;0.70;;;;;;;;;;5061072;28;20829;-75
2022/01/29 04:49:22;;;;;;;0.60;0.50;;;;;;;;;;5061252;28;20463;-75
2022/01/29 04:51:49;;;;;;;0.60;0.50;;;;;;;;;;5056074;28;21088;-75
2022/01/29 04:54:16;;;;;;;0.70;0.53;;;;;;;;;;5064942;28;21054;-75
2022/01/29 04:56:42;;;;;;;0.60;0.50;;;;;;;;;;5072200;28;20446;-76
2022/01/29 04:59:09;;;;;;;0.60;0.50;;;;;;;;;;5077409;28;20424;-76
2022/01/29 05:01:35;;;;;;;3.90;0.97;;;;;;;;;;5075979;28;20634;-76
2022/01/29 05:04:04;;;;;;;0.60;0.50;;;;;;;;;;5077171;28;20432;-76
2022/01/29 05:06:30;;;;;;;0.60;0.50;;;;;;;;;;5076025;28;20512;-75
2022/01/29 05:08:57;;;;;;;0.60;0.50;;;;;;;;;;5074616;28;20541;-75
2022/01/29 05:11:24;;;;;;;0.60;0.50;;;;;;;;;;5070828;28;20443;-74
2022/01/29 05:13:50;;;;;;;0.60;0.60;;;;;;;;;;5056540;28;20459;-75
2022/01/29 05:27:10;;;;;;;0.60;0.60;;;;;;;;;;5057535;28;20467;-75
2022/01/29 05:29:37;;;;;;;0.60;0.50;;;;;;;;;;5055909;28;20444;-75
2022/01/29 05:32:05;;;;;;;0.60;0.50;;;;;;;;;;5056319;28;20524;-74
2022/01/29 05:34:32;;;;;;;0.60;0.50;;;;;;;;;;5054856;28;20477;-74
2022/01/29 05:37:02;;;;;;;0.60;0.50;;;;;;;;;;5063875;28;20459;-75
2022/01/29 05:39:30;;;;;;;0.60;0.50;;;;;;;;;;5075199;28;20504;-74
2022/01/29 05:41:58;;;;;;;0.60;0.50;;;;;;;;;;5068896;28;20467;-74
2022/01/29 05:44:25;;;;;;;0.60;0.50;;;;;;;;;;5075814;28;20533;-74
2022/01/29 05:46:52;;;;;;;0.90;0.90;;;;;;;;;;5076581;28;20831;-74
2022/01/29 05:49:20;;;;;;;0.60;0.50;;;;;;;;;;5057346;28;20480;-74
2022/01/29 05:51:46;;;;;;;0.60;0.53;;;;;;;;;;5055266;28;20474;-74
2022/01/29 05:54:15;;;;;;;0.60;0.50;;;;;;;;;;5074605;28;20900;-74
2022/01/29 05:56:41;;;;;;;0.60;0.50;;;;;;;;;;5091584;28;20426;-73
2022/01/29 05:59:08;;;;;;;0.60;0.50;;;;;;;;;;5076569;28;20449;-73
2022/01/29 06:01:35;;;;;;;1.27;0.90;;;;;;;;;;5072564;28;20561;-73
2022/01/29 06:04:02;;;;;;;0.60;0.50;;;;;;;;;;5055390;28;20444;-73
2022/01/29 06:06:29;;;;;;;0.60;0.50;;;;;;;;;;5055919;28;20470;-73
2022/01/29 06:08:55;;;;;;;0.60;0.50;;;;;;;;;;5069014;28;20447;-74
2022/01/29 06:11:24;;;;;;;0.60;0.60;;;;;;;;;;5066165;28;21027;-72
2022/01/29 06:13:51;;;;;;;0.60;0.50;;;;;;;;;;5057407;28;20422;-73
2022/01/29 06:16:17;;;;;;;0.60;0.50;;;;;;;;;;5074942;28;20522;-74
2022/01/29 06:18:44;;;;;;;0.60;0.50;;;;;;;;;;5057881;28;20440;-74
2022/01/29 06:21:14;;;;;;;0.60;0.50;;;;;;;;;;5056106;28;20464;-72
2022/01/29 06:23:42;;;;;;;0.60;0.50;;;;;;;;;;5056845;28;20493;-73
2022/01/29 06:26:10;;;;;;;0.60;0.50;;;;;;;;;;5073480;28;20427;-73
2022/01/29 06:28:39;;;;;;;0.60;0.50;;;;;;;;;;5073085;28;20967;-73
2022/01/29 06:31:06;;;;;;;0.60;0.50;;;;;;;;;;5091656;28;20829;-73
2022/01/29 06:33:33;;;;;;;0.60;0.50;;;;;;;;;;5074518;28;20443;-73
2022/01/29 06:36:00;;;;;;;0.60;0.50;;;;;;;;;;5074509;28;20526;-73
2022/01/29 06:38:27;;;;;;;0.60;0.50;;;;;;;;;;5075243;28;20958;-72
2022/01/29 06:40:54;;;;;;;0.60;0.50;;;;;;;;;;5070202;28;20502;-74
2022/01/29 06:43:20;;;;;;;0.50;0.50;;;;;;;;;;5073103;28;20482;-74
2022/01/29 06:45:48;;;;;;;0.60;0.50;;;;;;;;;;5068991;28;20447;-73
2022/01/29 06:48:15;;;;;;;0.60;0.50;;;;;;;;;;5053545;28;20461;-74
2022/01/29 06:50:42;;;;;;;0.60;0.50;;;;;;;;;;5053863;28;20889;-72
2022/01/29 06:53:09;;;;;;;0.57;0.50;;;;;;;;;;5067944;28;20471;-73
2022/01/29 06:55:36;;;;;;;0.60;0.50;;;;;;;;;;5074954;28;20522;-73
2022/01/29 06:58:03;;;;;;;0.60;0.60;;;;;;;;;;5071312;28;20476;-73
2022/01/29 07:00:52;;;;;;;0.60;0.50;;;;;;;;;;5058803;28;20826;-73
2022/01/29 07:03:19;;;;;;;0.60;0.60;;;;;;;;;;5061733;28;20468;-74
2022/01/29 07:05:48;;;;;;;0.60;0.50;;;;;;;;;;5069642;28;20947;-74
2022/01/29 07:08:15;;;;;;;0.60;0.50;;;;;;;;;;5073677;28;20508;-73
2022/01/29 07:10:44;;;;;;;0.60;0.53;;;;;;;;;;5073665;28;20425;-74
2022/01/29 07:13:11;;;;;;;0.60;0.50;;;;;;;;;;5073673;28;20435;-74
2022/01/29 07:15:38;;;;;;;0.60;0.50;;;;;;;;;;5076514;28;20435;-73
2022/01/29 07:18:06;;;;;;;0.60;0.50;;;;;;;;;;5071560;28;20537;-74
2022/01/29 07:20:33;;;;;;;0.70;0.70;;;;;;;;;;5053530;28;20432;-73
2022/01/29 07:23:01;;;;;;;0.60;0.53;;;;;;;;;;5053942;28;20538;-73
2022/01/29 07:25:28;;;;;;;0.60;0.50;;;;;;;;;;5054871;28;20463;-73
2022/01/29 07:27:55;;;;;;;0.60;0.50;;;;;;;;;;5058034;28;20432;-74
2022/01/29 07:30:22;;;;;;;0.60;0.50;;;;;;;;;;5056034;28;20443;-74
2022/01/29 07:32:50;;;;;;;0.60;0.50;;;;;;;;;;5073277;28;20536;-74
2022/01/29 07:35:17;;;;;;;0.60;0.50;;;;;;;;;;5053494;28;20458;-73
2022/01/29 07:37:49;;;;;;;0.60;0.50;;;;;;;;;;5058571;28;20524;-74
2022/01/29 07:40:16;;;;;;;0.60;0.50;;;;;;;;;;5058713;28;20851;-74
2022/01/29 07:42:43;;;;;;;0.60;0.60;;;;;;;;;;5064100;28;20460;-74
2022/01/29 07:45:10;;;;;;;0.60;0.50;;;;;;;;;;5054123;28;20427;-74
2022/01/29 07:47:37;;;;;;;0.60;0.60;;;;;;;;;;5052992;28;20453;-73
2022/01/29 07:50:05;;;;;;;0.60;0.60;;;;;;;;;;5052350;28;20472;-72
2022/01/29 07:52:33;;;;;;;0.60;0.53;;;;;;;;;;5064638;28;20457;-73
2022/01/29 07:55:03;;;;;;;0.60;0.50;;;;;;;;;;5057691;28;20543;-73
2022/01/29 07:57:29;;;;;;;0.60;0.50;;;;;;;;;;5055417;28;20446;-74
2022/01/29 07:59:57;;;;;;;0.60;0.50;;;;;;;;;;5072860;28;20448;-74
2022/01/29 08:02:23;;;;;;;0.60;0.50;;;;;;;;;;5072458;28;20783;-73
2022/01/29 08:04:50;;;;;;;0.60;0.50;;;;;;;;;;5074175;28;20418;-75
2022/01/29 08:07:17;;;;;;;0.60;0.60;;;;;;;;;;5073751;28;20449;-72
2022/01/29 08:09:46;;;;;;;0.60;0.50;;;;;;;;;;5072205;28;20529;-74
2022/01/29 08:12:13;;;;;;;1.17;1.07;;;;;;;;;;5067799;28;20438;-72
2022/01/29 08:14:40;;;;;;;0.60;0.60;;;;;;;;;;5054301;28;20436;-72
2022/01/29 08:17:08;;;;;;;0.60;0.50;;;;;;;;;;5074110;28;20429;-72
2022/01/29 08:19:34;;;;;;;0.60;0.60;;;;;;;;;;5056308;28;20900;-72
2022/01/29 08:22:06;;;;;;;0.60;0.50;;;;;;;;;;5064971;28;20495;-71
2022/01/29 08:24:32;;;;;;;0.60;0.50;;;;;;;;;;5072199;28;20826;-74
2022/01/29 08:27:00;;;;;;;0.60;0.50;;;;;;;;;;5056024;28;20435;-74
2022/01/29 08:29:27;;;;;;;0.60;0.50;;;;;;;;;;5065012;28;20455;-74
2022/01/29 08:31:57;;;;;;;0.60;0.60;;;;;;;;;;5072724;28;20436;-73
2022/01/29 08:34:24;;;;;;;0.60;0.50;;;;;;;;;;5070236;28;20537;-71
2022/01/29 08:36:51;;;;;;;0.60;0.50;;;;;;;;;;5066424;28;20467;-71
2022/01/29 08:39:18;;;;;;;0.60;0.50;;;;;;;;;;5071499;28;20908;-73
2022/01/29 08:41:45;;;;;;;0.60;0.50;;;;;;;;;;5071900;28;20549;-73
2022/01/29 08:44:14;;;;;;;0.60;0.60;;;;;;;;;;5072192;28;20506;-72
2022/01/29 08:46:41;;;;;;;1.37;1.27;;;;;;;;;;5058531;28;20540;-72
2022/01/29 08:49:08;;;;;;;0.60;0.60;;;;;;;;;;5071434;28;20441;-73
2022/01/29 08:51:35;;;;;;;0.60;0.50;;;;;;;;;;5070143;28;20518;-73
2022/01/29 08:54:02;;;;;;;0.60;0.60;;;;;;;;;;5071552;28;20439;-73
2022/01/29 08:56:29;;;;;;;0.60;0.50;;;;;;;;;;5073361;28;20433;-74
2022/01/29 08:58:56;;;;;;;0.60;0.50;;;;;;;;;;5072162;28;20426;-72
2022/01/29 09:01:24;;;;;;;0.60;0.50;;;;;;;;;;5071281;28;20467;-72
2022/01/29 09:03:53;;;;;;;0.60;0.50;;;;;;;;;;5052480;28;20438;-73
2022/01/29 09:06:20;;;;;;;0.60;0.50;;;;;;;;;;5057203;28;20457;-74
2022/01/29 09:08:50;;;;;;;0.60;0.60;;;;;;;;;;5071345;28;20438;-73
2022/01/29 09:11:18;;;;;;;0.60;0.53;;;;;;;;;;5069430;28;20426;-74
2022/01/29 09:13:45;;;;;;;0.60;0.50;;;;;;;;;;5073037;28;20422;-74
2022/01/29 09:16:12;;;;;;;0.60;0.60;;;;;;;;;;5072960;28;20521;-74
2022/01/29 09:18:41;;;;;;;0.60;0.60;;;;;;;;;;5070554;28;20493;-72
2022/01/29 09:21:08;;;;;;;0.60;0.57;;;;;;;;;;5069086;28;20446;-72
2022/01/29 09:23:35;;;;;;;0.60;0.50;;;;;;;;;;5071444;28;20485;-74
2022/01/29 09:26:03;;;;;;;0.60;0.53;;;;;;;;;;5058979;28;20941;-74
2022/01/29 09:28:30;;;;;;;0.60;0.57;;;;;;;;;;5076500;28;20976;-72
2022/01/29 09:30:56;;;;;;;0.60;0.53;;;;;;;;;;5076183;28;20476;-72
2022/01/29 09:33:24;;;;;;;0.60;0.50;;;;;;;;;;5059736;28;20454;-72
2022/01/29 09:35:52;;;;;;;0.60;0.50;;;;;;;;;;5073441;28;20962;-74
2022/01/29 09:38:18;;;;;;;0.60;0.50;;;;;;;;;;5075492;28;20462;-74
2022/01/29 09:40:45;;;;;;;0.60;0.60;;;;;;;;;;5061746;28;20490;-74
2022/01/29 09:43:12;;;;;;;0.60;0.50;;;;;;;;;;5054349;28;20565;-74
2022/01/29 09:45:39;;;;;;;0.60;0.50;;;;;;;;;;5054674;28;20443;-73
2022/01/29 09:48:07;;;;;;;0.60;0.60;;;;;;;;;;5071025;28;20495;-74
2022/01/29 09:50:35;;;;;;;0.60;0.60;;;;;;;;;;5075393;28;20488;-73
2022/01/29 09:53:04;;;;;;;0.60;0.60;;;;;;;;;;5065572;28;20486;-73
2022/01/29 09:55:31;;;;;;;0.70;0.70;;;;;;;;;;5054954;28;20875;-73
2022/01/29 09:57:59;;;;;;;0.60;0.50;;;;;;;;;;5054224;28;20435;-73
2022/01/29 10:00:26;;;;;;;0.60;0.60;;;;;;;;;;5068190;28;20426;-73
2022/01/29 10:03:13;;;;;;;0.60;0.60;;;;;;;;;;5075539;28;20489;-75
2022/01/29 10:05:41;;;;;;;0.60;0.50;;;;;;;;;;5075445;28;20415;-73
2022/01/29 10:08:09;;;;;;;0.60;0.60;;;;;;;;;;5073875;28;20469;-74
2022/01/29 10:10:37;;;;;;;0.70;0.60;;;;;;;;;;5072580;28;20500;-74
2022/01/29 10:13:19;;;;;;;0.60;0.50;;;;;;;;;;5059871;28;20439;-73
2022/01/29 10:15:46;;;;;;;0.60;0.60;;;;;;;;;;5055433;28;20404;-74
2022/01/29 10:18:19;;;;;;;0.60;0.60;;;;;;;;;;5055757;28;20506;-74
2022/01/29 10:20:46;;;;;;;0.60;0.60;;;;;;;;;;5055618;28;20411;-75
2022/01/29 10:23:14;;;;;;;0.60;0.60;;;;;;;;;;5063654;28;21063;-73
2022/01/29 10:25:43;;;;;;;0.60;0.60;;;;;;;;;;5061520;28;21021;-74
2022/01/29 10:28:11;;;;;;;0.60;0.60;;;;;;;;;;5063493;28;20460;-74
2022/01/29 10:30:55;;;;;;;0.93;0.93;;;;;;;;;;5071753;28;21994;-74
2022/01/29 10:33:23;;;;;;;0.60;0.60;;;;;;;;;;5065062;28;20431;-74
2022/01/29 10:35:53;;;;;;;0.60;0.60;;;;;;;;;;5073670;28;20425;-73
2022/01/29 10:38:22;;;;;;;0.70;0.70;;;;;;;;;;5074280;28;20504;-74
2022/01/29 10:41:09;;;;;;;0.73;0.73;;;;;;;;;;5075417;28;20465;-73
2022/01/29 10:43:52;;;;;;;0.60;0.60;;;;;;;;;;5073124;28;20464;-74
2022/01/29 10:46:26;;;;;;;0.60;0.60;;;;;;;;;;5057573;28;20452;-74
2022/01/29 10:48:53;;;;;;;0.60;0.60;;;;;;;;;;5075461;28;20460;-73
2022/01/29 10:51:21;;;;;;;0.60;0.60;;;;;;;;;;5073969;28;20458;-74
2022/01/29 10:53:50;;;;;;;0.60;0.50;;;;;;;;;;5072171;28;20446;-74
2022/01/29 10:56:17;;;;;;;0.70;0.63;;;;;;;;;;5073129;28;20430;-74
2022/01/29 10:58:47;;;;;;;0.90;0.90;;;;;;;;;;5075193;28;20787;-73
2022/01/29 11:01:14;;;;;;;0.70;0.70;;;;;;;;;;5070133;28;20486;-74
2022/01/29 11:03:43;;;;;;;0.60;0.60;;;;;;;;;;5054206;28;20467;-73
2022/01/29 11:06:11;;;;;;;0.60;0.60;;;;;;;;;;5062610;28;20851;-73
2022/01/29 11:08:39;;;;;;;0.60;0.60;;;;;;;;;;5075288;28;20889;-73
2022/01/29 11:11:08;;;;;;;0.67;0.60;;;;;;;;;;5074063;28;20446;-73
2022/01/29 11:13:53;;;;;;;0.70;0.70;;;;;;;;;;5072733;28;20504;-72
2022/01/29 11:16:21;;;;;;;0.70;0.70;;;;;;;;;;5062170;28;20482;-74
2022/01/29 11:18:48;;;;;;;0.60;0.50;;;;;;;;;;5047775;28;20486;-73
2022/01/29 11:21:15;;;;;;;0.70;0.70;;;;;;;;;;5090290;28;20419;-73
2022/01/29 11:23:42;;;;;;;0.60;0.60;;;;;;;;;;5069953;28;20783;-74
2022/01/29 11:26:11;;;;;;;0.60;0.60;;;;;;;;;;5074874;28;20414;-73
2022/01/29 11:28:37;;;;;;;0.60;0.60;;;;;;;;;;5073001;28;20921;-73
2022/01/29 11:31:20;;;;;;;0.60;0.60;;;;;;;;;;5072969;28;20443;-73
2022/01/29 11:34:16;;;;;;;0.60;0.60;;;;;;;;;;5069657;28;20586;-74
2022/01/29 11:37:02;;;;;;;0.60;0.50;;;;;;;;;;4990535;28;20536;-74
2022/01/29 11:39:30;;;;;;;0.60;0.60;;;;;;;;;;5048331;28;20552;-73
2022/01/29 11:42:12;;;;;;;0.60;0.57;;;;;;;;;;5054767;28;22739;-73
2022/01/29 11:44:42;;;;;;;0.70;0.70;;;;;;;;;;5052673;28;20448;-73
2022/01/29 11:47:32;;;;;;;0.60;0.60;;;;;;;;;;5054048;28;20422;-72
2022/01/29 11:50:13;;;;;;;0.70;0.60;;;;;;;;;;5052474;28;20453;-73
2022/01/29 11:52:52;;;;;;;0.60;0.60;;;;;;;;;;5054962;28;20452;-73
2022/01/29 11:55:31;;;;;;;0.70;0.70;;;;;;;;;;5070953;28;20462;-74
2022/01/29 11:58:31;;;;;;;0.70;0.70;;;;;;;;;;5074580;28;20418;-74
2022/01/29 12:01:01;;;;;;;0.60;0.60;;;;;;;;;;5073496;28;20415;-73
2022/01/29 12:03:47;;;;;;;0.60;0.60;;;;;;;;;;5071325;28;20999;-73
2022/01/29 12:09:07;;;;;;;0.60;0.60;;;;;;;;;;5073107;28;20417;-74
2022/01/29 12:11:35;;;;;;;0.70;0.60;;;;;;;;;;5060572;28;20470;-74
2022/01/29 12:14:21;;;;;;;0.70;0.70;;;;;;;;;;5052864;28;20471;-73
2022/01/29 12:16:50;;;;;;;0.60;0.60;;;;;;;;;;5052913;28;20438;-73
2022/01/29 12:19:42;;;;;;;0.60;0.60;;;;;;;;;;5073259;28;20450;-73
2022/01/29 12:22:12;;;;;;;0.60;0.50;;;;;;;;;;5069225;28;20478;-74
2022/01/29 12:24:41;;;;;;;0.60;0.60;;;;;;;;;;5067377;28;20459;-76
2022/01/29 12:27:07;;;;;;;0.60;0.60;;;;;;;;;;5064907;28;20437;-72
2022/01/29 12:29:34;;;;;;;0.60;0.60;;;;;;;;;;5070685;28;20798;-73
2022/01/29 12:32:04;;;;;;;0.70;0.70;;;;;;;;;;5072283;28;20807;-73
2022/01/29 12:34:36;;;;;;;0.60;0.60;;;;;;;;;;5074492;28;20470;-73
2022/01/29 12:37:06;;;;;;;0.60;0.60;;;;;;;;;;5073099;28;20457;-73
2022/01/29 12:39:33;;;;;;;0.60;0.50;;;;;;;;;;5073494;28;20416;-71
2022/01/29 12:44:33;;;;;;;0.60;0.60;;;;;;;;;;5072047;28;20774;-74
2022/01/29 12:47:01;;;;;;;0.70;0.60;;;;;;;;;;5063580;28;20533;-72
2022/01/29 12:49:37;;;;;;;0.70;0.60;;;;;;;;;;5073113;28;20467;-72
2022/01/29 12:52:07;;;;;;;0.70;0.60;;;;;;;;;;5073441;28;20941;-74
2022/01/29 12:54:34;;;;;;;0.70;0.60;;;;;;;;;;5071272;28;20794;-74
2022/01/29 12:57:01;;;;;;;0.70;0.60;;;;;;;;;;5054970;28;20433;-73
2022/01/29 12:59:28;;;;;;;0.60;0.60;;;;;;;;;;5073566;28;20445;-74
2022/01/29 13:01:56;;;;;;;0.60;0.60;;;;;;;;;;5078499;28;20464;-73
2022/01/29 13:04:27;;;;;;;0.60;0.60;;;;;;;;;;5075312;28;20470;-74
2022/01/29 13:07:00;;;;;;;1.33;1.07;;;;;;;;;;5055687;28;20518;-74
2022/01/29 13:09:27;;;;;;;0.70;0.60;;;;;;;;;;5076653;28;20460;-73
2022/01/29 13:11:56;;;;;;;0.60;0.60;;;;;;;;;;5076017;28;20468;-73
2022/01/29 13:14:22;;;;;;;0.60;0.60;;;;;;;;;;5074705;28;20828;-74
2022/01/29 13:16:51;;;;;;;0.70;0.60;;;;;;;;;;5076962;28;20445;-73
2022/01/29 13:19:20;;;;;;;0.70;0.70;;;;;;;;;;5076547;28;20445;-75
2022/01/29 13:21:47;;;;;;;0.60;0.60;;;;;;;;;;5059300;28;20517;-73
2022/01/29 13:24:35;;;;;;;1.53;1.43;;;;;;;;;;5075467;28;20463;-76
2022/01/29 13:27:06;;;;;;;0.70;0.60;;;;;;;;;;5075707;28;20446;-74
2022/01/29 13:29:34;;;;;;;0.60;0.60;;;;;;;;;;5072092;28;20442;-75
2022/01/29 13:32:03;;;;;;;0.60;0.60;;;;;;;;;;5055495;28;20433;-76
2022/01/29 13:34:31;;;;;;;0.60;0.60;;;;;;;;;;5072861;28;20438;-75
2022/01/29 13:36:58;;;;;;;0.70;0.60;;;;;;;;;;5074697;28;20470;-74
2022/01/29 13:39:28;;;;;;;0.60;0.60;;;;;;;;;;5062006;28;20478;-75
2022/01/29 13:42:06;;;;;;;0.60;0.60;;;;;;;;;;5079926;28;20435;-73
2022/01/29 13:44:33;;;;;;;0.60;0.60;;;;;;;;;;5052260;28;20460;-75
2022/01/29 13:47:07;;;;;;;0.60;0.60;;;;;;;;;;5056644;28;20461;-74
2022/01/29 13:49:34;;;;;;;0.60;0.60;;;;;;;;;;5055297;28;20441;-74
2022/01/29 13:52:11;;;;;;;0.60;0.60;;;;;;;;;;5056795;28;20477;-74
2022/01/29 13:54:39;;;;;;;0.70;0.70;;;;;;;;;;5071156;28;20456;-73
2022/01/29 13:57:08;;;;;;;0.60;0.60;;;;;;;;;;5075927;28;20438;-73
2022/01/29 13:59:37;;;;;;;0.60;0.60;;;;;;;;;;5059840;28;20472;-75
2022/01/29 14:02:04;;;;;;;0.70;0.60;;;;;;;;;;5056106;28;20416;-72
2022/01/29 14:04:33;;;;;;;0.60;0.60;;;;;;;;;;5072021;28;20462;-73
2022/01/29 14:07:01;;;;;;;0.60;0.60;;;;;;;;;;5073906;28;20461;-73
2022/01/29 14:09:33;;;;;;;0.70;0.60;;;;;;;;;;5069781;28;20478;-72
2022/01/29 14:12:04;;;;;;;0.70;0.60;;;;;;;;;;5074890;28;20413;-73
2022/01/29 14:14:33;;;;;;;0.70;0.70;;;;;;;;;;5074959;28;20446;-72
2022/01/29 14:17:02;;;;;;;0.70;0.60;;;;;;;;;;5075703;28;20413;-73
2022/01/29 14:19:30;;;;;;;0.60;0.60;;;;;;;;;;5075594;28;20428;-73
2022/01/29 14:21:58;;;;;;;0.60;0.60;;;;;;;;;;5068650;28;20454;-73
2022/01/29 14:24:25;;;;;;;0.80;0.80;;;;;;;;;;5067599;28;20469;-74
2022/01/29 14:26:52;;;;;;;0.60;0.60;;;;;;;;;;5055477;28;20451;-78
2022/01/29 14:29:18;;;;;;;0.60;0.60;;;;;;;;;;5074909;28;20437;-74
2022/01/29 14:32:07;;;;;;;0.70;0.70;;;;;;;;;;5075974;28;20422;-72
2022/01/29 14:34:35;;;;;;;0.70;0.70;;;;;;;;;;5073207;28;20439;-75
2022/01/29 14:37:02;;;;;;;0.60;0.60;;;;;;;;;;5053807;28;20465;-74
2022/01/29 14:39:29;;;;;;;0.60;0.60;;;;;;;;;;5074070;28;20434;-73
2022/01/29 14:41:57;;;;;;;0.93;0.93;;;;;;;;;;5070026;28;20437;-75
2022/01/29 14:44:26;;;;;;;0.70;0.60;;;;;;;;;;5066561;28;20529;-72
2022/01/29 14:46:54;;;;;;;0.60;0.60;;;;;;;;;;5074977;28;20965;-74
2022/01/29 14:49:24;;;;;;;0.70;0.70;;;;;;;;;;5074352;28;20447;-72
2022/01/29 14:51:51;;;;;;;0.60;0.60;;;;;;;;;;5072530;28;20985;-72
2022/01/29 14:54:18;;;;;;;0.80;0.80;;;;;;;;;;5055498;28;20444;-72
2022/01/29 14:56:46;;;;;;;0.60;0.60;;;;;;;;;;5074066;28;20473;-73
2022/01/29 14:59:12;;;;;;;0.60;0.50;;;;;;;;;;5065449;28;20946;-73
2022/01/29 15:01:40;;;;;;;0.70;0.60;;;;;;;;;;5054163;28;20445;-72
2022/01/29 15:04:12;;;;;;;0.70;0.60;;;;;;;;;;5071042;28;20466;-73
2022/01/29 15:06:40;;;;;;;0.60;0.60;;;;;;;;;;5060465;28;20502;-71
2022/01/29 15:09:08;;;;;;;0.70;0.60;;;;;;;;;;5071616;28;20495;-73
2022/01/29 15:11:35;;;;;;;0.60;0.60;;;;;;;;;;5072628;28;20447;-73
2022/01/29 15:14:03;;;;;;;0.60;0.60;;;;;;;;;;5074645;28;20404;-72